createdAt,value
2018-08-09T00:00:26.911Z,1009.87
2018-08-09T00:01:26.964Z,1009.85
2018-08-09T00:02:26.921Z,1009.86
2018-08-09T00:03:26.921Z,1009.85
2018-08-09T00:04:26.928Z,1009.88
2018-08-09T00:05:26.928Z,1009.87
2018-08-09T00:06:26.985Z,1009.88
2018-08-09T00:07:26.939Z,1009.90
2018-08-09T00:08:26.943Z,1009.88
2018-08-09T00:09:26.942Z,1009.91
2018-08-09T00:10:26.947Z,1009.91
2018-08-09T00:11:26.951Z,1009.89
2018-08-09T00:12:26.956Z,1009.91
2018-08-09T00:13:26.962Z,1009.92
2018-08-09T00:14:26.965Z,1009.93
2018-08-09T00:15:26.967Z,1009.96
2018-08-09T00:16:26.970Z,1009.92
2018-08-09T00:17:26.975Z,1009.93
2018-08-09T00:18:26.981Z,1009.91
2018-08-09T00:19:26.987Z,1009.93
2018-08-09T00:20:26.983Z,1009.89
2018-08-09T00:21:26.988Z,1009.96
2018-08-09T00:22:26.998Z,1009.93
2018-08-09T00:23:27.002Z,1009.93
2018-08-09T00:24:26.999Z,1009.95
2018-08-09T00:25:27.008Z,1009.89
2018-08-09T00:26:27.009Z,1009.93
2018-08-09T00:27:27.012Z,1009.95
2018-08-09T00:28:27.015Z,1009.95
2018-08-09T00:29:27.020Z,1009.98
2018-08-09T00:30:27.021Z,1010.01
2018-08-09T00:31:27.026Z,1009.99
2018-08-09T00:32:27.034Z,1010.00
2018-08-09T00:33:27.035Z,1010.05
2018-08-09T00:34:27.037Z,1010.06
2018-08-09T00:35:27.046Z,1010.06
2018-08-09T00:36:27.046Z,1010.09
2018-08-09T00:37:27.048Z,1010.09
2018-08-09T00:38:27.052Z,1010.12
2018-08-09T00:39:27.055Z,1010.15
2018-08-09T00:40:27.056Z,1010.14
2018-08-09T00:41:27.060Z,1010.13
2018-08-09T00:42:27.065Z,1010.14
2018-08-09T00:43:27.071Z,1010.15
2018-08-09T00:44:27.076Z,1010.17
2018-08-09T00:45:27.078Z,1010.22
2018-08-09T00:46:27.081Z,1010.21
2018-08-09T00:47:27.085Z,1010.21
2018-08-09T00:48:27.089Z,1010.22
2018-08-09T00:49:27.093Z,1010.22
2018-08-09T00:50:27.095Z,1010.23
2018-08-09T00:51:27.098Z,1010.23
2018-08-09T00:52:27.101Z,1010.24
2018-08-09T00:53:27.105Z,1010.23
2018-08-09T00:54:27.116Z,1010.26
2018-08-09T00:55:27.118Z,1010.25
2018-08-09T00:56:27.116Z,1010.29
2018-08-09T00:57:27.118Z,1010.27
2018-08-09T00:58:27.126Z,1010.31
2018-08-09T00:59:27.128Z,1010.32
2018-08-09T01:00:27.129Z,1010.33
2018-08-09T01:01:27.133Z,1010.35
2018-08-09T01:02:27.139Z,1010.33
2018-08-09T01:03:27.144Z,1010.38
2018-08-09T01:04:27.143Z,1010.38
2018-08-09T01:05:27.148Z,1010.38
2018-08-09T01:06:27.154Z,1010.37
2018-08-09T01:07:27.157Z,1010.37
2018-08-09T01:08:27.158Z,1010.41
2018-08-09T01:09:27.183Z,1010.36
2018-08-09T01:10:27.163Z,1010.38
2018-08-09T01:11:27.169Z,1010.40
2018-08-09T01:12:27.175Z,1010.41
2018-08-09T01:13:27.174Z,1010.42
2018-08-09T01:14:27.180Z,1010.39
2018-08-09T01:15:27.201Z,1010.41
2018-08-09T01:16:27.185Z,1010.47
2018-08-09T01:17:27.194Z,1010.46
2018-08-09T01:18:27.196Z,1010.48
2018-08-09T01:19:27.198Z,1010.51
2018-08-09T01:20:27.204Z,1010.50
2018-08-09T01:21:27.216Z,1010.50
2018-08-09T01:22:27.209Z,1010.51
2018-08-09T01:23:27.214Z,1010.52
2018-08-09T01:24:27.218Z,1010.52
2018-08-09T01:25:27.217Z,1010.55
2018-08-09T01:26:27.223Z,1010.59
2018-08-09T01:27:27.226Z,1010.60
2018-08-09T01:28:27.227Z,1010.54
2018-08-09T01:29:27.230Z,1010.59
2018-08-09T01:30:27.236Z,1010.61
2018-08-09T01:31:27.241Z,1010.59
2018-08-09T01:32:27.241Z,1010.60
2018-08-09T01:33:27.245Z,1010.59
2018-08-09T01:34:27.255Z,1010.57
2018-08-09T01:35:27.254Z,1010.59
2018-08-09T01:36:27.250Z,1010.58
2018-08-09T01:37:27.255Z,1010.62
2018-08-09T01:38:27.258Z,1010.67
2018-08-09T01:39:27.264Z,1010.67
2018-08-09T01:40:27.266Z,1010.74
2018-08-09T01:41:27.268Z,1010.74
2018-08-09T01:42:27.277Z,1010.72
2018-08-09T01:43:27.278Z,1010.74
2018-08-09T01:44:27.280Z,1010.73
2018-08-09T01:45:27.285Z,1010.76
2018-08-09T01:46:27.293Z,1010.75
2018-08-09T01:47:27.289Z,1010.77
2018-08-09T01:48:27.295Z,1010.76
2018-08-09T01:49:27.302Z,1010.82
2018-08-09T01:50:27.300Z,1010.79
2018-08-09T01:51:27.304Z,1010.83
2018-08-09T01:52:27.309Z,1010.80
2018-08-09T01:53:27.319Z,1010.84
2018-08-09T01:54:27.323Z,1010.86
2018-08-09T01:55:27.317Z,1010.91
2018-08-09T01:56:27.313Z,1010.87
2018-08-09T01:57:27.328Z,1010.90
2018-08-09T01:58:27.321Z,1010.89
2018-08-09T01:59:27.327Z,1010.87
2018-08-09T02:00:27.330Z,1010.90
2018-08-09T02:01:27.332Z,1010.89
2018-08-09T02:02:27.342Z,1010.92
2018-08-09T02:03:27.339Z,1010.89
2018-08-09T02:04:27.348Z,1010.94
2018-08-09T02:05:27.351Z,1010.93
2018-08-09T02:06:27.350Z,1010.96
2018-08-09T02:07:27.361Z,1011.02
2018-08-09T02:08:27.358Z,1011.03
2018-08-09T02:09:27.360Z,1011.05
2018-08-09T02:10:27.364Z,1011.09
2018-08-09T02:11:27.366Z,1011.06
2018-08-09T02:12:27.368Z,1011.07
2018-08-09T02:13:27.377Z,1011.02
2018-08-09T02:14:27.380Z,1011.02
2018-08-09T02:15:27.385Z,1011.01
2018-08-09T02:16:27.384Z,1011.00
2018-08-09T02:17:27.388Z,1010.98
2018-08-09T02:18:27.390Z,1011.00
2018-08-09T02:19:27.388Z,1011.06
2018-08-09T02:20:27.393Z,1011.05
2018-08-09T02:21:27.397Z,1011.08
2018-08-09T02:22:27.400Z,1011.09
2018-08-09T02:23:27.403Z,1011.08
2018-08-09T02:24:27.406Z,1011.13
2018-08-09T02:25:27.413Z,1011.06
2018-08-09T02:26:27.413Z,1011.06
2018-08-09T02:27:27.414Z,1011.09
2018-08-09T02:28:27.416Z,1011.04
2018-08-09T02:29:27.427Z,1011.03
2018-08-09T02:30:27.426Z,1011.05
2018-08-09T02:31:27.432Z,1011.07
2018-08-09T02:32:27.431Z,1011.10
2018-08-09T02:33:27.432Z,1011.12
2018-08-09T02:34:27.439Z,1011.10
2018-08-09T02:35:27.442Z,1011.09
2018-08-09T02:36:27.444Z,1011.08
2018-08-09T02:37:27.446Z,1011.07
2018-08-09T02:38:27.450Z,1011.09
2018-08-09T02:39:27.456Z,1011.08
2018-08-09T02:40:27.457Z,1011.12
2018-08-09T02:41:27.459Z,1011.18
2018-08-09T02:42:27.468Z,1011.19
2018-08-09T02:43:27.479Z,1011.22
2018-08-09T02:44:27.468Z,1011.25
2018-08-09T02:45:27.470Z,1011.23
2018-08-09T02:46:27.473Z,1011.26
2018-08-09T02:47:27.481Z,1011.28
2018-08-09T02:48:27.478Z,1011.27
2018-08-09T02:49:27.486Z,1011.28
2018-08-09T02:50:27.488Z,1011.26
2018-08-09T02:51:27.491Z,1011.28
2018-08-09T02:52:27.488Z,1011.34
2018-08-09T02:53:27.497Z,1011.33
2018-08-09T02:54:27.497Z,1011.36
2018-08-09T02:55:27.501Z,1011.34
2018-08-09T02:56:27.506Z,1011.39
2018-08-09T02:57:27.509Z,1011.34
2018-08-09T02:58:27.508Z,1011.37
2018-08-09T02:59:27.513Z,1011.34
2018-08-09T03:00:27.513Z,1011.34
2018-08-09T03:01:27.531Z,1011.34
2018-08-09T03:02:27.523Z,1011.35
2018-08-09T03:03:27.521Z,1011.31
2018-08-09T03:04:27.527Z,1011.28
2018-08-09T03:05:27.533Z,1011.26
2018-08-09T03:06:27.535Z,1011.26
2018-08-09T03:07:27.533Z,1011.26
2018-08-09T03:08:27.538Z,1011.31
2018-08-09T03:09:27.543Z,1011.32
2018-08-09T03:10:27.545Z,1011.35
2018-08-09T03:11:27.548Z,1011.38
2018-08-09T03:12:27.555Z,1011.36
2018-08-09T03:13:27.553Z,1011.36
2018-08-09T03:14:27.556Z,1011.37
2018-08-09T03:15:27.565Z,1011.40
2018-08-09T03:16:27.561Z,1011.35
2018-08-09T03:17:27.567Z,1011.36
2018-08-09T03:18:27.570Z,1011.34
2018-08-09T03:19:27.578Z,1011.35
2018-08-09T03:20:27.573Z,1011.39
2018-08-09T03:21:27.574Z,1011.40
2018-08-09T03:22:27.582Z,1011.42
2018-08-09T03:23:27.583Z,1011.47
2018-08-09T03:24:27.595Z,1011.46
2018-08-09T03:25:27.588Z,1011.49
2018-08-09T03:26:27.595Z,1011.46
2018-08-09T03:27:27.591Z,1011.43
2018-08-09T03:28:27.595Z,1011.47
2018-08-09T03:29:27.596Z,1011.48
2018-08-09T03:30:27.604Z,1011.46
2018-08-09T03:31:27.606Z,1011.51
2018-08-09T03:32:27.606Z,1011.51
2018-08-09T03:33:27.611Z,1011.52
2018-08-09T03:34:27.617Z,1011.57
2018-08-09T03:35:27.616Z,1011.55
2018-08-09T03:36:27.634Z,1011.57
2018-08-09T03:37:27.623Z,1011.59
2018-08-09T03:38:27.626Z,1011.58
2018-08-09T03:39:27.629Z,1011.60
2018-08-09T03:40:27.631Z,1011.59
2018-08-09T03:41:27.642Z,1011.63
2018-08-09T03:42:27.638Z,1011.63
2018-08-09T03:43:27.653Z,1011.64
2018-08-09T03:44:27.643Z,1011.64
2018-08-09T03:45:27.690Z,1011.69
2018-08-09T03:46:27.650Z,1011.67
2018-08-09T03:47:27.649Z,1011.68
2018-08-09T03:48:27.652Z,1011.64
2018-08-09T03:49:27.657Z,1011.63
2018-08-09T03:50:27.664Z,1011.63
2018-08-09T03:51:27.664Z,1011.64
2018-08-09T03:52:27.669Z,1011.65
2018-08-09T03:53:27.668Z,1011.66
2018-08-09T03:54:27.698Z,1011.69
2018-08-09T03:55:27.676Z,1011.68
2018-08-09T03:56:27.676Z,1011.64
2018-08-09T03:57:27.698Z,1011.64
2018-08-09T03:58:27.690Z,1011.63
2018-08-09T03:59:27.686Z,1011.67
2018-08-09T04:00:27.689Z,1011.59
2018-08-09T04:01:27.692Z,1011.63
2018-08-09T04:02:27.700Z,1011.65
2018-08-09T04:03:27.702Z,1011.65
2018-08-09T04:04:27.698Z,1011.67
2018-08-09T04:05:27.705Z,1011.68
2018-08-09T04:06:27.718Z,1011.69
2018-08-09T04:07:27.709Z,1011.69
2018-08-09T04:08:27.712Z,1011.65
2018-08-09T04:09:27.720Z,1011.63
2018-08-09T04:10:27.724Z,1011.63
2018-08-09T04:11:27.728Z,1011.60
2018-08-09T04:12:27.724Z,1011.55
2018-08-09T04:13:27.726Z,1011.58
2018-08-09T04:14:27.729Z,1011.55
2018-08-09T04:15:27.737Z,1011.56
2018-08-09T04:16:27.736Z,1011.58
2018-08-09T04:17:27.740Z,1011.61
2018-08-09T04:18:27.744Z,1011.59
2018-08-09T04:19:27.753Z,1011.62
2018-08-09T04:20:27.751Z,1011.65
2018-08-09T04:21:27.752Z,1011.64
2018-08-09T04:22:27.762Z,1011.62
2018-08-09T04:23:27.764Z,1011.66
2018-08-09T04:24:27.762Z,1011.62
2018-08-09T04:25:27.761Z,1011.63
2018-08-09T04:26:27.781Z,1011.59
2018-08-09T04:27:27.770Z,1011.62
2018-08-09T04:28:27.778Z,1011.61
2018-08-09T04:29:27.777Z,1011.60
2018-08-09T04:30:27.786Z,1011.67
2018-08-09T04:31:27.782Z,1011.63
2018-08-09T04:32:27.782Z,1011.63
2018-08-09T04:33:27.789Z,1011.64
2018-08-09T04:34:27.820Z,1011.62
2018-08-09T04:35:27.790Z,1011.62
2018-08-09T04:36:27.798Z,1011.62
2018-08-09T04:37:27.834Z,1011.62
2018-08-09T04:38:27.802Z,1011.63
2018-08-09T04:39:27.803Z,1011.63
2018-08-09T04:40:27.808Z,1011.63
2018-08-09T04:41:27.813Z,1011.63
2018-08-09T04:42:27.819Z,1011.64
2018-08-09T04:43:27.840Z,1011.65
2018-08-09T04:44:27.822Z,1011.68
2018-08-09T04:45:27.826Z,1011.69
2018-08-09T04:46:27.834Z,1011.68
2018-08-09T04:47:27.831Z,1011.70
2018-08-09T04:48:27.835Z,1011.73
2018-08-09T04:49:27.835Z,1011.75
2018-08-09T04:50:27.841Z,1011.72
2018-08-09T04:51:27.846Z,1011.74
2018-08-09T04:52:27.844Z,1011.78
2018-08-09T04:53:27.857Z,1011.76
2018-08-09T04:54:27.855Z,1011.80
2018-08-09T04:55:27.862Z,1011.82
2018-08-09T04:56:27.858Z,1011.80
2018-08-09T04:57:27.859Z,1011.80
2018-08-09T04:58:27.917Z,1011.83
2018-08-09T04:59:27.870Z,1011.82
2018-08-09T05:00:27.870Z,1011.82
2018-08-09T05:01:27.875Z,1011.82
2018-08-09T05:02:27.880Z,1011.80
2018-08-09T05:03:27.886Z,1011.86
2018-08-09T05:04:27.886Z,1011.90
2018-08-09T05:05:27.891Z,1011.87
2018-08-09T05:06:27.889Z,1011.89
2018-08-09T05:07:27.895Z,1011.90
2018-08-09T05:08:27.898Z,1011.91
2018-08-09T05:09:27.946Z,1011.91
2018-08-09T05:10:27.905Z,1011.87
2018-08-09T05:11:27.913Z,1011.87
2018-08-09T05:12:27.915Z,1011.85
2018-08-09T05:13:27.917Z,1011.88
2018-08-09T05:14:27.924Z,1011.85
2018-08-09T05:15:27.928Z,1011.89
2018-08-09T05:16:27.928Z,1011.92
2018-08-09T05:17:27.932Z,1011.92
2018-08-09T05:18:27.936Z,1011.95
2018-08-09T05:19:27.941Z,1011.97
2018-08-09T05:20:27.944Z,1011.96
2018-08-09T05:21:27.947Z,1011.98
2018-08-09T05:22:27.958Z,1011.95
2018-08-09T05:23:27.962Z,1011.95
2018-08-09T05:24:27.958Z,1011.97
2018-08-09T05:25:27.963Z,1011.95
2018-08-09T05:26:28.038Z,1011.90
2018-08-09T05:27:27.977Z,1011.91
2018-08-09T05:28:27.973Z,1011.85
2018-08-09T05:29:27.980Z,1011.83
2018-08-09T05:30:27.991Z,1011.82
2018-08-09T05:31:27.990Z,1011.85
2018-08-09T05:32:27.996Z,1011.78
2018-08-09T05:33:27.997Z,1011.85
2018-08-09T05:34:28.005Z,1011.87
2018-08-09T05:35:28.007Z,1011.85
2018-08-09T05:36:28.039Z,1011.78
2018-08-09T05:37:28.036Z,1011.81
2018-08-09T05:38:28.021Z,1011.80
2018-08-09T05:39:28.031Z,1011.79
2018-08-09T05:40:28.037Z,1011.81
2018-08-09T05:41:28.034Z,1011.83
2018-08-09T05:42:28.042Z,1011.81
2018-08-09T05:43:28.044Z,1011.82
2018-08-09T05:44:28.048Z,1011.81
2018-08-09T05:45:28.055Z,1011.85
2018-08-09T05:46:28.053Z,1011.83
2018-08-09T05:47:28.069Z,1011.86
2018-08-09T05:48:28.067Z,1011.84
2018-08-09T05:49:28.073Z,1011.86
2018-08-09T05:50:28.077Z,1011.85
2018-08-09T05:51:28.082Z,1011.83
2018-08-09T05:52:28.088Z,1011.81
2018-08-09T05:53:28.091Z,1011.85
2018-08-09T05:54:28.099Z,1011.84
2018-08-09T05:55:28.103Z,1011.85
2018-08-09T05:56:28.106Z,1011.84
2018-08-09T05:57:28.115Z,1011.81
2018-08-09T05:58:28.184Z,1011.86
2018-08-09T05:59:28.125Z,1011.89
2018-08-09T06:00:28.133Z,1011.90
2018-08-09T06:01:28.134Z,1011.92
2018-08-09T06:02:28.137Z,1011.92
2018-08-09T06:03:28.143Z,1011.92
2018-08-09T06:04:28.150Z,1011.87
2018-08-09T06:05:28.151Z,1011.95
2018-08-09T06:06:28.159Z,1011.91
2018-08-09T06:07:28.172Z,1011.96
2018-08-09T06:08:28.166Z,1011.93
2018-08-09T06:09:28.255Z,1011.96
2018-08-09T06:10:28.180Z,1011.99
2018-08-09T06:11:28.182Z,1011.97
2018-08-09T06:12:28.188Z,1012.01
2018-08-09T06:13:28.219Z,1011.97
2018-08-09T06:14:28.205Z,1011.96
2018-08-09T06:15:28.206Z,1011.96
2018-08-09T06:16:28.217Z,1011.96
2018-08-09T06:17:28.215Z,1011.95
2018-08-09T06:18:28.224Z,1011.95
2018-08-09T06:19:28.228Z,1011.98
2018-08-09T06:20:28.237Z,1012.00
2018-08-09T06:21:28.238Z,1012.01
2018-08-09T06:22:28.245Z,1012.00
2018-08-09T06:23:28.253Z,1012.03
2018-08-09T06:24:28.258Z,1012.03
2018-08-09T06:25:28.266Z,1011.99
2018-08-09T06:26:28.360Z,1012.03
2018-08-09T06:27:28.276Z,1012.01
2018-08-09T06:28:28.288Z,1011.99
2018-08-09T06:29:28.291Z,1012.00
2018-08-09T06:30:28.297Z,1012.05
2018-08-09T06:31:28.298Z,1012.04
2018-08-09T06:32:28.302Z,1012.01
2018-08-09T06:33:28.358Z,1012.03
2018-08-09T06:34:28.320Z,1012.01
2018-08-09T06:35:28.321Z,1012.06
2018-08-09T06:36:28.326Z,1012.05
2018-08-09T06:37:28.333Z,1012.03
2018-08-09T06:38:28.340Z,1012.04
2018-08-09T06:39:28.350Z,1012.03
2018-08-09T06:40:28.357Z,1012.07
2018-08-09T06:41:28.363Z,1012.06
2018-08-09T06:42:28.369Z,1012.04
2018-08-09T06:43:28.375Z,1012.06
2018-08-09T06:44:28.382Z,1012.07
2018-08-09T06:45:28.387Z,1012.08
2018-08-09T06:46:28.394Z,1012.13
2018-08-09T06:47:28.399Z,1012.13
2018-08-09T06:48:28.406Z,1012.15
2018-08-09T06:49:28.412Z,1012.12
2018-08-09T06:50:28.420Z,1012.10
2018-08-09T06:51:28.587Z,1012.14
2018-08-09T06:52:28.435Z,1012.11
2018-08-09T06:53:28.438Z,1012.15
2018-08-09T06:54:28.450Z,1012.14
2018-08-09T06:55:28.456Z,1012.16
2018-08-09T06:56:28.460Z,1012.16
2018-08-09T06:57:28.468Z,1012.19
2018-08-09T06:58:28.473Z,1012.20
2018-08-09T06:59:28.480Z,1012.21
2018-08-09T07:00:28.495Z,1012.20
2018-08-09T07:01:28.496Z,1012.18
2018-08-09T07:02:28.504Z,1012.21
2018-08-09T07:03:28.512Z,1012.20
2018-08-09T07:04:28.572Z,1012.23
2018-08-09T07:05:28.527Z,1012.22
2018-08-09T07:06:28.674Z,1012.21
2018-08-09T07:07:28.543Z,1012.23
2018-08-09T07:08:28.641Z,1012.19
2018-08-09T07:09:28.567Z,1012.24
2018-08-09T07:10:28.562Z,1012.23
2018-08-09T07:11:28.572Z,1012.25
2018-08-09T07:12:28.576Z,1012.26
2018-08-09T07:13:28.587Z,1012.24
2018-08-09T07:14:28.687Z,1012.26
2018-08-09T07:15:28.605Z,1012.23
2018-08-09T07:16:28.608Z,1012.26
2018-08-09T07:17:28.614Z,1012.29
2018-08-09T07:18:28.624Z,1012.25
2018-08-09T07:19:28.633Z,1012.22
2018-08-09T07:20:28.705Z,1012.22
2018-08-09T07:21:28.651Z,1012.20
2018-08-09T07:22:28.655Z,1012.17
2018-08-09T07:23:28.665Z,1012.20
2018-08-09T07:24:28.672Z,1012.19
2018-08-09T07:25:28.685Z,1012.21
2018-08-09T07:26:28.729Z,1012.24
2018-08-09T07:27:28.698Z,1012.26
2018-08-09T07:28:28.706Z,1012.27
2018-08-09T07:29:28.712Z,1012.23
2018-08-09T07:30:28.719Z,1012.26
2018-08-09T07:31:28.728Z,1012.22
2018-08-09T07:32:28.735Z,1012.26
2018-08-09T07:33:28.745Z,1012.24
2018-08-09T07:34:28.753Z,1012.23
2018-08-09T07:35:28.762Z,1012.24
2018-08-09T07:36:28.816Z,1012.21
2018-08-09T07:37:28.776Z,1012.25
2018-08-09T07:38:28.786Z,1012.21
2018-08-09T07:39:28.846Z,1012.19
2018-08-09T07:40:28.805Z,1012.20
2018-08-09T07:41:28.809Z,1012.21
2018-08-09T07:42:28.821Z,1012.22
2018-08-09T07:43:28.827Z,1012.22
2018-08-09T07:44:28.835Z,1012.20
2018-08-09T07:45:28.845Z,1012.19
2018-08-09T07:46:28.854Z,1012.19
2018-08-09T07:47:28.863Z,1012.19
2018-08-09T07:48:28.883Z,1012.22
2018-08-09T07:49:28.942Z,1012.17
2018-08-09T07:50:28.900Z,1012.21
2018-08-09T07:51:28.901Z,1012.13
2018-08-09T07:52:28.907Z,1012.17
2018-08-09T07:53:28.920Z,1012.16
2018-08-09T07:54:28.989Z,1012.19
2018-08-09T07:55:28.931Z,1012.16
2018-08-09T07:56:28.937Z,1012.17
2018-08-09T07:57:28.947Z,1012.19
2018-08-09T07:58:28.956Z,1012.13
2018-08-09T07:59:28.977Z,1012.19
2018-08-09T08:00:28.972Z,1012.18
2018-08-09T08:01:28.981Z,1012.15
2018-08-09T08:02:28.991Z,1012.21
2018-08-09T08:03:28.998Z,1012.15
2018-08-09T08:04:29.012Z,1012.21
2018-08-09T08:05:29.014Z,1012.17
2018-08-09T08:06:29.027Z,1012.17
2018-08-09T08:07:29.035Z,1012.22
2018-08-09T08:08:29.107Z,1012.22
2018-08-09T08:09:29.053Z,1012.20
2018-08-09T08:10:29.061Z,1012.23
2018-08-09T08:11:29.076Z,1012.20
2018-08-09T08:12:29.079Z,1012.27
2018-08-09T08:13:29.089Z,1012.22
2018-08-09T08:14:29.132Z,1012.15
2018-08-09T08:15:29.104Z,1012.14
2018-08-09T08:16:29.113Z,1012.15
2018-08-09T08:17:29.122Z,1012.14
2018-08-09T08:18:29.133Z,1012.15
2018-08-09T08:19:29.141Z,1012.15
2018-08-09T08:20:29.151Z,1012.11
2018-08-09T08:21:29.164Z,1012.14
2018-08-09T08:22:29.168Z,1012.11
2018-08-09T08:23:29.179Z,1012.10
2018-08-09T08:24:29.189Z,1012.15
2018-08-09T08:25:29.198Z,1012.17
2018-08-09T08:26:29.207Z,1012.14
2018-08-09T08:27:29.217Z,1012.15
2018-08-09T08:28:29.232Z,1012.15
2018-08-09T08:29:29.237Z,1012.17
2018-08-09T08:30:29.246Z,1012.18
2018-08-09T08:31:29.256Z,1012.21
2018-08-09T08:32:29.266Z,1012.16
2018-08-09T08:33:29.276Z,1012.22
2018-08-09T08:34:29.474Z,1012.19
2018-08-09T08:35:29.297Z,1012.23
2018-08-09T08:36:29.305Z,1012.18
2018-08-09T08:37:29.314Z,1012.16
2018-08-09T08:38:29.323Z,1012.19
2018-08-09T08:39:29.392Z,1012.19
2018-08-09T08:40:29.343Z,1012.21
2018-08-09T08:41:29.455Z,1012.20
2018-08-09T08:42:29.361Z,1012.22
2018-08-09T08:43:29.375Z,1012.17
2018-08-09T08:44:29.380Z,1012.21
2018-08-09T08:45:29.391Z,1012.21
2018-08-09T08:46:29.613Z,1012.16
2018-08-09T08:47:29.516Z,1012.17
2018-08-09T08:48:29.418Z,1012.14
2018-08-09T08:49:29.427Z,1012.16
2018-08-09T08:50:29.439Z,1012.17
2018-08-09T08:51:29.446Z,1012.11
2018-08-09T08:52:29.455Z,1012.07
2018-08-09T08:53:29.467Z,1011.95
2018-08-09T08:54:29.474Z,1011.95
2018-08-09T08:55:29.485Z,1012.03
2018-08-09T08:56:29.661Z,1012.01
2018-08-09T08:57:29.500Z,1012.05
2018-08-09T08:58:29.510Z,1012.01
2018-08-09T08:59:29.523Z,1012.01
2018-08-09T09:00:29.526Z,1012.07
2018-08-09T09:01:29.541Z,1012.05
2018-08-09T09:02:29.542Z,1011.91
2018-08-09T09:03:29.553Z,1011.84
2018-08-09T09:04:29.558Z,1011.79
2018-08-09T09:05:29.568Z,1011.77
2018-08-09T09:06:29.575Z,1011.75
2018-08-09T09:07:29.611Z,1011.76
2018-08-09T09:08:29.883Z,1011.80
2018-08-09T09:09:29.801Z,1011.77
2018-08-09T09:10:29.806Z,1011.77
2018-08-09T09:11:29.616Z,1011.78
2018-08-09T09:12:29.623Z,1011.75
2018-08-09T09:13:30.412Z,1011.77
2018-08-09T09:14:29.761Z,1011.75
2018-08-09T09:15:29.646Z,1011.71
2018-08-09T09:16:29.725Z,1011.71
2018-08-09T09:17:30.383Z,1011.67
2018-08-09T09:18:29.797Z,1011.64
2018-08-09T09:19:29.778Z,1011.69
2018-08-09T09:20:29.679Z,1011.67
2018-08-09T09:21:29.688Z,1011.68
2018-08-09T09:22:30.034Z,1011.65
2018-08-09T09:23:29.787Z,1011.59
2018-08-09T09:24:29.741Z,1011.61
2018-08-09T09:25:29.716Z,1011.61
2018-08-09T09:26:29.724Z,1011.56
2018-08-09T09:27:29.731Z,1011.56
2018-08-09T09:28:29.736Z,1011.56
2018-08-09T09:29:29.742Z,1011.59
2018-08-09T09:30:29.749Z,1011.56
2018-08-09T09:31:29.892Z,1011.49
2018-08-09T09:32:29.761Z,1011.56
2018-08-09T09:33:29.768Z,1011.55
2018-08-09T09:34:29.878Z,1011.48
2018-08-09T09:35:29.785Z,1011.49
2018-08-09T09:36:29.787Z,1011.46
2018-08-09T09:37:29.794Z,1011.45
2018-08-09T09:38:29.799Z,1011.45
2018-08-09T09:39:29.805Z,1011.43
2018-08-09T09:40:29.894Z,1011.41
2018-08-09T09:41:29.819Z,1011.40
2018-08-09T09:42:29.823Z,1011.39
2018-08-09T09:43:30.166Z,1011.39
2018-08-09T09:44:29.957Z,1011.37
2018-08-09T09:45:32.194Z,1011.38
2018-08-09T09:46:31.242Z,1011.32
2018-08-09T09:47:30.525Z,1011.30
2018-08-09T09:48:29.904Z,1011.31
2018-08-09T09:50:30.643Z,1011.28
2018-08-09T09:53:30.141Z,1011.34
2018-08-09T09:54:34.982Z,1011.28
2018-08-09T09:55:29.919Z,1011.26
2018-08-09T09:56:30.138Z,1011.25
2018-08-09T09:57:30.812Z,1011.23
2018-08-09T09:58:29.924Z,1011.24
2018-08-09T09:59:29.932Z,1011.20
2018-08-09T10:00:29.935Z,1011.16
2018-08-09T10:01:29.947Z,1011.21
2018-08-09T10:02:29.951Z,1011.19
2018-08-09T10:03:29.954Z,1011.20
2018-08-09T10:04:29.959Z,1011.20
2018-08-09T10:05:29.967Z,1011.17
2018-08-09T10:06:29.970Z,1011.12
2018-08-09T10:07:29.981Z,1011.09
2018-08-09T10:08:29.986Z,1011.08
2018-08-09T10:09:29.989Z,1011.13
2018-08-09T10:10:30.016Z,1011.10
2018-08-09T10:11:30.002Z,1011.04
2018-08-09T10:12:30.010Z,1011.03
2018-08-09T10:13:30.015Z,1011.03
2018-08-09T10:14:30.025Z,1010.99
2018-08-09T10:15:30.029Z,1011.02
2018-08-09T10:16:30.032Z,1010.92
2018-08-09T10:17:30.039Z,1010.93
2018-08-09T10:18:30.045Z,1010.96
2018-08-09T10:19:30.052Z,1010.88
2018-08-09T10:20:30.059Z,1010.82
2018-08-09T10:21:30.067Z,1010.84
2018-08-09T10:22:30.069Z,1010.82
2018-08-09T10:23:30.078Z,1010.79
2018-08-09T10:24:30.083Z,1010.78
2018-08-09T10:25:30.089Z,1010.79
2018-08-09T10:26:30.095Z,1010.80
2018-08-09T10:27:30.100Z,1010.74
2018-08-09T10:28:30.106Z,1010.76
2018-08-09T10:29:30.116Z,1010.74
2018-08-09T10:30:30.122Z,1010.71
2018-08-09T10:31:30.124Z,1010.69
2018-08-09T10:32:30.130Z,1010.72
2018-08-09T10:33:30.137Z,1010.73
2018-08-09T10:34:30.143Z,1010.70
2018-08-09T10:35:30.178Z,1010.69
2018-08-09T10:36:30.154Z,1010.66
2018-08-09T10:37:30.162Z,1010.65
2018-08-09T10:38:30.172Z,1010.69
2018-08-09T10:39:30.256Z,1010.69
2018-08-09T10:40:30.185Z,1010.66
2018-08-09T10:41:30.187Z,1010.64
2018-08-09T10:42:30.198Z,1010.60
2018-08-09T10:43:30.203Z,1010.63
2018-08-09T10:44:30.205Z,1010.61
2018-08-09T10:45:30.211Z,1010.60
2018-08-09T10:46:30.220Z,1010.58
2018-08-09T10:47:30.226Z,1010.55
2018-08-09T10:48:30.234Z,1010.56
2018-08-09T10:49:30.241Z,1010.53
2018-08-09T10:50:30.246Z,1010.48
2018-08-09T10:51:30.253Z,1010.51
2018-08-09T10:52:30.260Z,1010.48
2018-08-09T10:53:30.271Z,1010.54
2018-08-09T10:54:30.904Z,1010.46
2018-08-09T10:55:30.284Z,1010.48
2018-08-09T10:56:30.285Z,1010.48
2018-08-09T10:57:31.434Z,1010.49
2018-08-09T10:58:30.821Z,1010.48
2018-08-09T10:59:30.339Z,1010.46
2018-08-09T11:00:33.295Z,1010.43
2018-08-09T11:01:30.453Z,1010.47
2018-08-09T11:02:30.373Z,1010.43
2018-08-09T11:03:30.560Z,1010.41
2018-08-09T11:04:30.470Z,1010.40
2018-08-09T11:05:30.387Z,1010.40
2018-08-09T11:06:30.780Z,1010.36
2018-08-09T11:07:31.036Z,1010.33
2018-08-09T11:08:30.460Z,1010.27
2018-08-09T11:09:30.429Z,1010.25
2018-08-09T11:10:30.684Z,1010.25
2018-08-09T11:11:30.380Z,1010.24
2018-08-09T11:12:30.785Z,1010.18
2018-08-09T11:13:30.564Z,1010.20
2018-08-09T11:14:30.789Z,1010.17
2018-08-09T11:15:30.624Z,1010.18
2018-08-09T11:16:30.923Z,1010.15
2018-08-09T11:17:30.491Z,1010.16
2018-08-09T11:18:30.852Z,1010.19
2018-08-09T11:19:30.531Z,1010.16
2018-08-09T11:20:30.655Z,1010.12
2018-08-09T11:21:30.449Z,1010.13
2018-08-09T11:22:30.646Z,1010.09
2018-08-09T11:23:30.626Z,1010.06
2018-08-09T11:24:30.860Z,1010.00
2018-08-09T11:25:30.723Z,1010.08
2018-08-09T11:26:30.549Z,1010.04
2018-08-09T11:27:30.737Z,1010.05
2018-08-09T11:28:30.499Z,1010.02
2018-08-09T11:29:30.700Z,1009.98
2018-08-09T11:30:30.557Z,1009.97
2018-08-09T11:31:30.700Z,1009.89
2018-08-09T11:32:30.639Z,1009.87
2018-08-09T11:33:30.543Z,1009.85
2018-08-09T11:34:30.542Z,1009.83
2018-08-09T11:35:30.571Z,1009.87
2018-08-09T11:36:30.608Z,1009.86
2018-08-09T11:37:30.611Z,1009.84
2018-08-09T11:38:30.586Z,1009.81
2018-08-09T11:39:30.570Z,1009.76
2018-08-09T11:40:30.606Z,1009.71
2018-08-09T11:41:30.623Z,1009.73
2018-08-09T11:42:30.626Z,1009.73
2018-08-09T11:43:30.633Z,1009.67
2018-08-09T11:44:30.616Z,1009.68
2018-08-09T11:45:30.663Z,1009.70
2018-08-09T11:46:30.701Z,1009.65
2018-08-09T11:47:30.688Z,1009.67
2018-08-09T11:48:30.651Z,1009.61
2018-08-09T11:49:30.671Z,1009.65
2018-08-09T11:50:30.652Z,1009.64
2018-08-09T11:51:30.707Z,1009.58
2018-08-09T11:52:30.740Z,1009.58
2018-08-09T11:53:30.666Z,1009.60
2018-08-09T11:54:30.756Z,1009.58
2018-08-09T11:55:30.687Z,1009.58
2018-08-09T11:56:30.879Z,1009.58
2018-08-09T11:57:30.748Z,1009.61
2018-08-09T11:58:30.705Z,1009.59
2018-08-09T11:59:30.714Z,1009.58
2018-08-09T12:00:30.721Z,1009.57
2018-08-09T12:01:30.836Z,1009.57
2018-08-09T12:02:30.767Z,1009.52
2018-08-09T12:03:30.807Z,1009.50
2018-08-09T12:04:30.823Z,1009.49
2018-08-09T12:05:30.772Z,1009.48
2018-08-09T12:06:30.829Z,1009.41
2018-08-09T12:07:30.777Z,1009.46
2018-08-09T12:08:30.784Z,1009.46